KMSY Airport Information

Runway Information
Runway 02 Length 7001 ft width 150 ft
Elevation 3 ft Threshold ft Heading 15
Runway 20 Length 7001 ft Width 150 ft
Elevation ft Threshold ft Heading 195
Runway 06 Length 3570 ft width 150 ft
Elevation 2 ft Threshold ft Heading 60
Runway 24 Length 3570 ft Width 150 ft
Elevation 1 ft Threshold ft Heading 240
Runway 11 Length 10104 ft width 150 ft
Elevation 4 ft Threshold ft Heading 106
Runway 29 Length 10104 ft Width 150 ft
Elevation 2 ft Threshold 304 ft Heading 286
Airport Frequencies
Type A/D Name NEW ORLEAN Frequency 123.85 MHZ
Type ATIS Name ATIS Frequency 127.55 MHZ
Type CLD Name CLNC DEL Frequency 127.2 MHZ
Type GND Name GND Frequency 121.9 MHZ
Type TWR Name TWR Frequency 119.5 MHZ
Type UNIC Name UNICOM Frequency 122.95 MHZ
Airport Navaids
Type NDB Name Kinte Frequency 338 KHZ
Airport Weather Information & NOTAM
ADDS - METARS form results

(0644 UTC 03 December 2022)
Data provider http://aviationweather.gov/metar/data/
 
METAR text: KMSY 030642Z 14007KT 1/2SM FG VV002 21/21 A3023 RMK AO2 T02060206 RVRNO
Conditions at: KMSY (NEW ORLEANS/INTL, LA, US) observed 0642 UTC 03 December 2022
Temperature: 20.6°C (69°F)
Dewpoint: 20.6°C (69°F) [RH = 100%]
Pressure (altimeter): 30.23 inches Hg (1023.8 mb)
Winds: from the SE (140 degrees) at 8 MPH (7 knots; 3.6 m/s)
Visibility: 0.50 miles (0.80 km)
Ceiling: indefinite ceiling with vertical visibility of 200 feet AGL
Clouds: obscured sky
Weather: FG  (fog)

METAR text: KMSY 030631Z 14008KT 1 1/2SM BR OVC004 21/21 A3024 RMK AO2 CIG 002V007 T02060206
Conditions at: KMSY (NEW ORLEANS/INTL, LA, US) observed 0631 UTC 03 December 2022
Temperature: 20.6°C (69°F)
Dewpoint: 20.6°C (69°F) [RH = 100%]
Pressure (altimeter): 30.24 inches Hg (1024.1 mb)
Winds: from the SE (140 degrees) at 9 MPH (8 knots; 4.1 m/s)
Visibility: 1.50 miles (2.41 km)
Ceiling: 400 feet AGL
Clouds: overcast cloud deck at 400 feet AGL
Weather: BR  (mist)

METAR text: KMSY 030628Z 14008KT 3SM BR OVC004 21/21 A3024 RMK AO2 CIG 002V007 T02060206
Conditions at: KMSY (NEW ORLEANS/INTL, LA, US) observed 0628 UTC 03 December 2022
Temperature: 20.6°C (69°F)
Dewpoint: 20.6°C (69°F) [RH = 100%]
Pressure (altimeter): 30.24 inches Hg (1024.1 mb)
Winds: from the SE (140 degrees) at 9 MPH (8 knots; 4.1 m/s)
Visibility: 3 miles ( 5 km)
Ceiling: 400 feet AGL
Clouds: overcast cloud deck at 400 feet AGL
Weather: BR  (mist)

METAR text: KMSY 030553Z 13005KT 5SM BR OVC008 20/20 A3025 RMK AO2 CIG 005V010 SLP246 T02000200 10217 20194 402500078 50003
Conditions at: KMSY (NEW ORLEANS/INTL, LA, US) observed 0553 UTC 03 December 2022
Temperature: 20.0°C (68°F)
Dewpoint: 20.0°C (68°F) [RH = 100%]
Pressure (altimeter): 30.25 inches Hg (1024.5 mb)
[Sea-level pressure: 1024.6 mb]
Winds: from the SE (130 degrees) at 6 MPH (5 knots; 2.6 m/s)
Visibility: 5 miles ( 8 km)
Ceiling: 800 feet AGL
Clouds: overcast cloud deck at 800 feet AGL
Weather: BR  (mist)

Forecast for: KMSY (NEW ORLEANS/INTL, LA, US)
Text: KMSY 030539Z 0306/0412 16005KT 4SM BR BKN009
Forecast period: 0600 to 1100 UTC 03 December 2022
Forecast type: FROM: standard forecast or significant change
Winds: from the SSE (160 degrees) at 6 MPH (5 knots; 2.6 m/s)
Visibility: 4 miles (6 km)
Ceiling: 900 feet AGL
Clouds: broken clouds at 900 feet AGL
Weather: BR  (mist)
Text: FM031100 00000KT 1SM BR VCSH BKN003
Forecast period: 1100 to 1500 UTC 03 December 2022
Forecast type: FROM: standard forecast or significant change
Winds: calm
Visibility: 1.00 miles (1.61 km)
Ceiling: 300 feet AGL
Clouds: broken clouds at 300 feet AGL
Weather: BR VCSH  (mist, showers in vicinity)
Text: FM031500 VRB03KT P6SM VCSH BKN008
Forecast period: 1500 to 1600 UTC 03 December 2022
Forecast type: FROM: standard forecast or significant change
Winds: variable direction winds at 3 MPH (3 knots; 1.5 m/s)
Visibility: 6 or more miles (10+ km)
Ceiling: 800 feet AGL
Clouds: broken clouds at 800 feet AGL
Weather: VCSH  (showers in vicinity)
Text: FM031600 VRB04KT P6SM VCSH SCT015
Forecast period: 1600 UTC 03 December 2022 to 0000 UTC 04 December 2022
Forecast type: FROM: standard forecast or significant change
Winds: variable direction winds at 5 MPH (4 knots; 2.1 m/s)
Visibility: 6 or more miles (10+ km)
Ceiling: at least 12,000 feet AGL
Clouds: scattered clouds at 1500 feet AGL
Weather: VCSH  (showers in vicinity)
Text: FM040000 VRB04KT P6SM SCT030
Forecast period: 0000 to 0700 UTC 04 December 2022
Forecast type: FROM: standard forecast or significant change
Winds: variable direction winds at 5 MPH (4 knots; 2.1 m/s)
Visibility: 6 or more miles (10+ km)
Ceiling: at least 12,000 feet AGL
Clouds: scattered clouds at 3000 feet AGL
Weather: no significant weather forecast for this period
Text: FM040700 VRB03KT 4SM BR BKN008
Forecast period: 0700 to 1000 UTC 04 December 2022
Forecast type: FROM: standard forecast or significant change
Winds: variable direction winds at 3 MPH (3 knots; 1.5 m/s)
Visibility: 4 miles (6 km)
Ceiling: 800 feet AGL
Clouds: broken clouds at 800 feet AGL
Weather: BR  (mist)
Text: FM041000 VRB04KT 3/4SM BR OVC003
Forecast period: 1000 to 1200 UTC 04 December 2022
Forecast type: FROM: standard forecast or significant change
Winds: variable direction winds at 5 MPH (4 knots; 2.1 m/s)
Visibility: 0.75 miles (1.21 km)
Ceiling: 300 feet AGL
Clouds: overcast cloud deck at 300 feet AGL
Weather: BR  (mist)